Time;durP1;ratioP1;P1;durP2;ratioP2;P2;SDS_P1;SDS_P2;PMS_P1;PMS_P2;Temp;Humidity;BMP_temperature;BMP_pressure;BME280_temperature;BME280_humidity;BME280_pressure;Samples;Min_cycle;Max_cycle;Signal;HPM_P1;HPM_P2
2023/05/16 00:09:49;;;;;;;3.97;3.57;;;;;;;;;;4924164;29;20274;-30
2023/05/16 00:12:56;;;;;;;5.20;4.13;;;;;;;;;;5009759;28;20200;-27
2023/05/16 00:15:42;;;;;;;3.87;3.47;;;;;;;;;;4999988;28;20229;-28
2023/05/16 00:30:11;;;;;;;4.90;3.77;;;;;;;;;;4966569;28;20209;-27
2023/05/16 00:41:45;;;;;;;5.00;4.27;;;;;;;;;;5007000;28;20207;-27
2023/05/16 00:44:29;;;;;;;5.03;3.73;;;;;;;;;;5001782;28;20464;-28
2023/05/16 00:47:33;;;;;;;4.47;3.87;;;;;;;;;;5250356;22;20268;-26
2023/05/16 01:04:01;;;;;;;;;;;;;;;;;;;;;
2023/05/16 01:06:49;;;;;;;6.40;4.37;;;;;;;;;;5033066;28;20219;-30
2023/05/16 01:24:05;;;;;;;4.67;4.00;;;;;;;;;;4998026;28;20203;-26
2023/05/16 01:26:47;;;;;;;4.60;3.40;;;;;;;;;;5016607;28;20230;-28
2023/05/16 01:33:01;;;;;;;4.20;3.77;;;;;;;;;;4920599;29;20278;-29
2023/05/16 01:47:38;;;;;;;4.20;3.87;;;;;;;;;;5014621;28;20272;-28
2023/05/16 01:50:19;;;;;;;4.20;3.80;;;;;;;;;;5027934;28;20199;-27
2023/05/16 01:53:10;;;;;;;;;;;;;;;;;;;;;
2023/05/16 01:59:07;;;;;;;;;;;;;;;;;;;;;
2023/05/16 02:02:15;;;;;;;3.80;3.50;;;;;;;;;;5007147;28;20290;-29
2023/05/16 02:07:48;;;;;;;5.17;4.03;;;;;;;;;;5032935;28;20243;-26
2023/05/16 02:16:55;;;;;;;5.93;3.73;;;;;;;;;;4956165;28;20251;-27
2023/05/16 02:19:51;;;;;;;;;;;;;;;;;;;;;
2023/05/16 02:25:25;;;;;;;4.13;3.83;;;;;;;;;;5111664;22;20314;-26
2023/05/16 02:33:59;;;;;;;4.87;4.00;;;;;;;;;;4932922;29;20275;-27
2023/05/16 02:39:33;;;;;;;4.63;4.20;;;;;;;;;;4950355;28;20209;-26
2023/05/16 02:42:09;;;;;;;3.80;3.50;;;;;;;;;;4988006;28;20258;-28
2023/05/16 02:48:03;;;;;;;3.83;3.53;;;;;;;;;;4975092;28;20218;-30
2023/05/16 02:53:59;;;;;;;3.33;3.13;;;;;;;;;;4990978;28;20221;-28
2023/05/16 03:02:34;;;;;;;3.60;3.30;;;;;;;;;;4932357;29;20275;-26
2023/05/16 03:05:18;;;;;;;5.17;3.40;;;;;;;;;;4932417;29;20208;-28
2023/05/16 03:07:53;;;;;;;4.33;3.40;;;;;;;;;;4932574;29;20217;-28
2023/05/16 03:13:47;;;;;;;;;;;;;;;;;;;;;
2023/05/16 03:16:52;;;;;;;4.20;3.73;;;;;;;;;;5263740;22;20230;-27
2023/05/16 03:19:49;;;;;;;4.80;4.30;;;;;;;;;;4985829;28;20282;-29
2023/05/16 03:34:45;;;;;;;5.90;4.30;;;;;;;;;;5370784;22;20290;-26
2023/05/16 03:40:31;;;;;;;5.47;3.93;;;;;;;;;;5016748;28;20460;-29
2023/05/16 03:46:34;;;;;;;3.77;3.37;;;;;;;;;;5017630;28;20306;-29
2023/05/16 03:52:05;;;;;;;5.67;4.37;;;;;;;;;;5120854;22;20373;-27
2023/05/16 03:55:14;;;;;;;;;;;;;;;;;;;;;
2023/05/16 03:58:00;;;;;;;6.40;3.70;;;;;;;;;;5021109;28;20211;-28
2023/05/16 04:06:38;;;;;;;4.43;3.77;;;;;;;;;;5016033;28;20223;-27
2023/05/16 04:21:15;;;;;;;;;;;;;;;;;;;;;
2023/05/16 04:24:09;;;;;;;5.43;4.73;;;;;;;;;;5107909;28;20549;-40
2023/05/16 04:27:02;;;;;;;6.53;4.30;;;;;;;;;;5062042;28;20221;-39
2023/05/16 04:29:52;;;;;;;5.13;4.63;;;;;;;;;;5081959;28;20216;-39
2023/05/16 04:32:34;;;;;;;5.03;4.43;;;;;;;;;;5073117;28;20233;-39
2023/05/16 04:35:29;;;;;;;5.10;4.60;;;;;;;;;;5089816;28;20607;-37
2023/05/16 04:43:58;;;;;;;5.20;4.40;;;;;;;;;;5014292;28;20214;-28
2023/05/16 04:49:19;;;;;;;4.67;4.17;;;;;;;;;;5033061;28;20198;-27
2023/05/16 04:57:37;;;;;;;5.37;4.87;;;;;;;;;;5060694;22;20237;-28
2023/05/16 05:03:03;;;;;;;6.00;4.90;;;;;;;;;;5030177;28;20211;-27
2023/05/16 05:05:38;;;;;;;4.93;4.43;;;;;;;;;;5063235;28;20221;-29
2023/05/16 05:08:36;;;;;;;5.67;4.83;;;;;;;;;;5068237;28;20210;-27
2023/05/16 05:14:20;;;;;;;5.90;5.30;;;;;;;;;;5088758;27;20563;-36
2023/05/16 05:17:09;;;;;;;5.87;5.23;;;;;;;;;;5087281;28;20283;-39
2023/05/16 05:19:41;;;;;;;5.47;4.90;;;;;;;;;;5089668;28;20191;-35
2023/05/16 05:27:46;;;;;;;5.90;5.40;;;;;;;;;;5089250;28;20197;-35
2023/05/16 05:30:30;;;;;;;7.40;5.23;;;;;;;;;;5082347;28;20198;-38
2023/05/16 05:35:48;;;;;;;9.30;5.60;;;;;;;;;;5087034;28;20224;-41
2023/05/16 05:38:36;;;;;;;7.47;6.07;;;;;;;;;;5089042;28;20248;-41
2023/05/16 05:44:19;;;;;;;7.57;5.93;;;;;;;;;;5127012;27;20195;-29
2023/05/16 05:47:16;;;;;;;6.90;5.70;;;;;;;;;;5118902;28;20307;-29
2023/05/16 05:50:16;;;;;;;10.23;8.07;;;;;;;;;;5126057;28;20199;-27
2023/05/16 05:53:08;;;;;;;11.00;8.70;;;;;;;;;;5129674;27;20221;-26
2023/05/16 05:56:00;;;;;;;8.43;6.90;;;;;;;;;;5111338;27;20247;-27
2023/05/16 05:58:51;;;;;;;12.27;8.80;;;;;;;;;;5117258;28;20208;-29
2023/05/16 06:07:56;;;;;;;16.50;10.57;;;;;;;;;;5123984;28;20247;-27
2023/05/16 06:13:55;;;;;;;18.53;12.07;;;;;;;;;;5119027;27;20225;-28
2023/05/16 06:16:51;;;;;;;17.67;12.27;;;;;;;;;;5114809;28;20331;-27
2023/05/16 06:23:18;;;;;;;18.07;12.77;;;;;;;;;;5108428;27;20242;-32
2023/05/16 06:26:21;;;;;;;18.87;14.40;;;;;;;;;;5106237;28;20231;-26
2023/05/16 06:29:09;;;;;;;13.57;10.13;;;;;;;;;;5103788;28;20227;-26
2023/05/16 06:31:52;;;;;;;19.37;13.60;;;;;;;;;;5101189;28;20205;-29
2023/05/16 06:37:35;;;;;;;15.83;12.13;;;;;;;;;;5103795;27;20222;-28
2023/05/16 06:40:13;;;;;;;30.23;15.50;;;;;;;;;;5105249;28;20198;-28
2023/05/16 06:42:50;;;;;;;19.43;14.13;;;;;;;;;;5106437;28;20209;-26
2023/05/16 06:48:14;;;;;;;18.73;12.37;;;;;;;;;;5101866;27;20215;-29
2023/05/16 06:51:03;;;;;;;24.73;15.30;;;;;;;;;;5110826;28;20204;-26
2023/05/16 06:53:51;;;;;;;19.00;14.70;;;;;;;;;;5113650;28;20245;-25
2023/05/16 06:59:39;;;;;;;20.03;14.83;;;;;;;;;;5095637;28;20294;-27
2023/05/16 07:02:32;;;;;;;21.80;14.93;;;;;;;;;;5102314;28;20224;-29
2023/05/16 07:05:05;;;;;;;20.33;14.93;;;;;;;;;;5105005;28;20201;-28
2023/05/16 07:07:46;;;;;;;16.80;12.70;;;;;;;;;;5114663;28;20286;-28
2023/05/16 07:10:34;;;;;;;20.07;15.17;;;;;;;;;;5106079;27;20205;-27
2023/05/16 07:16:08;;;;;;;19.47;14.20;;;;;;;;;;5097000;28;20278;-27
2023/05/16 07:18:50;;;;;;;18.10;13.83;;;;;;;;;;5106502;28;20203;-28
2023/05/16 07:27:32;;;;;;;17.23;12.70;;;;;;;;;;5114467;27;20207;-29
2023/05/16 07:30:34;;;;;;;15.53;11.47;;;;;;;;;;5105749;27;20197;-26
2023/05/16 07:36:15;;;;;;;15.63;10.17;;;;;;;;;;5093313;28;20372;-27
2023/05/16 07:38:52;;;;;;;13.83;10.20;;;;;;;;;;5102992;28;20224;-31
2023/05/16 07:41:29;;;;;;;9.87;7.20;;;;;;;;;;5102529;28;20184;-28
2023/05/16 07:44:06;;;;;;;12.23;10.30;;;;;;;;;;5112160;28;20192;-27
2023/05/16 07:46:38;;;;;;;14.00;10.90;;;;;;;;;;5104205;28;20243;-28
2023/05/16 07:49:15;;;;;;;15.67;10.43;;;;;;;;;;5102018;28;20192;-26
2023/05/16 07:51:50;;;;;;;13.80;9.80;;;;;;;;;;5093892;28;20213;-29
2023/05/16 07:54:25;;;;;;;12.93;10.17;;;;;;;;;;5100517;28;20220;-29
2023/05/16 07:57:16;;;;;;;11.33;9.63;;;;;;;;;;5105213;28;20527;-30
2023/05/16 08:00:01;;;;;;;14.17;10.17;;;;;;;;;;5106853;28;20490;-29
2023/05/16 08:02:41;;;;;;;13.33;9.30;;;;;;;;;;5096822;27;20211;-28
2023/05/16 08:05:27;;;;;;;13.43;9.93;;;;;;;;;;5104735;27;20191;-27
2023/05/16 08:08:32;;;;;;;12.77;9.53;;;;;;;;;;5113090;27;20291;-27
2023/05/16 08:11:16;;;;;;;11.43;8.93;;;;;;;;;;5065432;28;20246;-30
2023/05/16 08:16:57;;;;;;;13.40;9.40;;;;;;;;;;5091438;28;20227;-27
2023/05/16 08:19:42;;;;;;;11.23;8.13;;;;;;;;;;5099625;28;20238;-26
2023/05/16 08:22:36;;;;;;;9.70;7.73;;;;;;;;;;5091983;28;20275;-29
2023/05/16 08:25:10;;;;;;;8.10;7.27;;;;;;;;;;5095082;28;20209;-30
2023/05/16 08:28:00;;;;;;;9.53;8.00;;;;;;;;;;5109733;28;20198;-30
2023/05/16 08:30:35;;;;;;;8.70;6.90;;;;;;;;;;5093349;28;20284;-30
2023/05/16 08:33:35;;;;;;;8.90;8.00;;;;;;;;;;5192761;22;20231;-26
2023/05/16 08:48:31;;;;;;;8.70;7.57;;;;;;;;;;5094157;22;20251;-27
2023/05/16 08:51:08;;;;;;;8.00;7.10;;;;;;;;;;5087350;28;20208;-29
2023/05/16 09:02:11;;;;;;;10.13;8.20;;;;;;;;;;5303299;22;20219;-32
2023/05/16 09:04:40;;;;;;;11.10;8.90;;;;;;;;;;5109885;28;20197;-31
2023/05/16 09:07:07;;;;;;;9.63;7.60;;;;;;;;;;5110420;28;20248;-31
2023/05/16 09:09:34;;;;;;;8.77;7.80;;;;;;;;;;5111270;28;20210;-34
2023/05/16 09:12:01;;;;;;;10.50;8.53;;;;;;;;;;5080977;28;20215;-34
2023/05/16 09:14:28;;;;;;;8.67;7.50;;;;;;;;;;5091853;28;20217;-33
2023/05/16 09:17:06;;;;;;;10.90;7.90;;;;;;;;;;5085584;28;20220;-29
2023/05/16 09:19:38;;;;;;;9.93;8.10;;;;;;;;;;5089958;28;20211;-31
2023/05/16 09:22:07;;;;;;;12.43;8.50;;;;;;;;;;5090316;28;20251;-30
2023/05/16 09:24:38;;;;;;;13.77;8.97;;;;;;;;;;5085534;28;20259;-31
2023/05/16 09:27:08;;;;;;;13.23;8.90;;;;;;;;;;5082907;28;20586;-34
2023/05/16 09:29:35;;;;;;;10.97;8.57;;;;;;;;;;5105232;28;20211;-33
2023/05/16 09:32:06;;;;;;;12.53;8.23;;;;;;;;;;5083597;28;20217;-31
2023/05/16 09:34:33;;;;;;;15.87;9.33;;;;;;;;;;5104318;28;20688;-32
2023/05/16 09:37:00;;;;;;;12.53;9.50;;;;;;;;;;5110362;28;20237;-30
2023/05/16 09:39:29;;;;;;;10.63;8.83;;;;;;;;;;5091675;28;20234;-34
2023/05/16 09:41:56;;;;;;;13.90;10.90;;;;;;;;;;5093936;28;20213;-33
2023/05/16 09:44:23;;;;;;;10.17;8.87;;;;;;;;;;5096106;28;20206;-33
2023/05/16 09:46:50;;;;;;;9.83;8.47;;;;;;;;;;5087031;28;20591;-34
2023/05/16 09:49:17;;;;;;;11.37;8.67;;;;;;;;;;5089728;28;20667;-34
2023/05/16 09:51:44;;;;;;;13.60;10.20;;;;;;;;;;5089980;28;20678;-34
2023/05/16 09:54:12;;;;;;;9.23;8.00;;;;;;;;;;5080240;28;20223;-32
2023/05/16 09:56:50;;;;;;;10.37;8.10;;;;;;;;;;5088862;28;20233;-34
2023/05/16 09:59:17;;;;;;;11.27;8.97;;;;;;;;;;5091282;28;20623;-33
2023/05/16 10:01:44;;;;;;;8.57;7.67;;;;;;;;;;5081228;28;20212;-34
2023/05/16 10:04:14;;;;;;;12.23;8.43;;;;;;;;;;5096614;28;20219;-31
2023/05/16 10:06:42;;;;;;;8.80;7.53;;;;;;;;;;5113677;28;20226;-30
2023/05/16 10:09:11;;;;;;;11.17;8.27;;;;;;;;;;5104384;28;20215;-31
2023/05/16 10:11:39;;;;;;;9.97;8.40;;;;;;;;;;5075009;28;20688;-30
2023/05/16 10:14:08;;;;;;;11.10;8.27;;;;;;;;;;5103814;28;20227;-31
2023/05/16 10:16:35;;;;;;;10.50;9.10;;;;;;;;;;5100614;27;20223;-33
2023/05/16 10:19:04;;;;;;;12.07;9.63;;;;;;;;;;5111335;28;20200;-34
2023/05/16 10:21:34;;;;;;;10.50;8.80;;;;;;;;;;5113599;28;20243;-32
2023/05/16 10:24:04;;;;;;;10.53;7.13;;;;;;;;;;5113604;28;20200;-32
2023/05/16 10:26:32;;;;;;;9.63;7.73;;;;;;;;;;5085701;28;20298;-32
2023/05/16 10:28:59;;;;;;;10.83;7.57;;;;;;;;;;5103086;28;20204;-33
2023/05/16 10:31:29;;;;;;;9.17;7.30;;;;;;;;;;5088915;28;20200;-35
2023/05/16 10:33:56;;;;;;;9.03;7.13;;;;;;;;;;5102247;28;20221;-32
2023/05/16 10:36:24;;;;;;;8.33;7.03;;;;;;;;;;5113601;28;20216;-31
2023/05/16 10:38:52;;;;;;;10.73;8.13;;;;;;;;;;5096574;28;20276;-33
2023/05/16 10:41:20;;;;;;;10.23;7.33;;;;;;;;;;5090997;28;20201;-34
2023/05/16 10:43:56;;;;;;;10.97;8.67;;;;;;;;;;5109804;28;20269;-35
2023/05/16 10:46:24;;;;;;;10.20;8.00;;;;;;;;;;5087432;28;20229;-33
2023/05/16 10:48:52;;;;;;;10.17;8.07;;;;;;;;;;5100402;28;20200;-32
2023/05/16 10:51:36;;;;;;;10.60;7.67;;;;;;;;;;5113067;28;20283;-32
2023/05/16 10:54:08;;;;;;;10.83;8.03;;;;;;;;;;5112617;27;20226;-30
2023/05/16 10:56:35;;;;;;;10.97;7.90;;;;;;;;;;5083025;28;20223;-34
2023/05/16 10:59:03;;;;;;;11.97;9.10;;;;;;;;;;5102574;28;20295;-33
2023/05/16 11:01:31;;;;;;;10.00;7.27;;;;;;;;;;5087604;28;20567;-33
2023/05/16 11:04:03;;;;;;;14.33;8.07;;;;;;;;;;5109929;28;20677;-32
2023/05/16 11:06:32;;;;;;;13.87;8.90;;;;;;;;;;5112887;27;20232;-35
2023/05/16 11:09:05;;;;;;;10.97;8.63;;;;;;;;;;5098110;27;20266;-35
2023/05/16 11:11:42;;;;;;;11.03;7.53;;;;;;;;;;5081102;28;20208;-32
2023/05/16 11:14:09;;;;;;;8.87;7.33;;;;;;;;;;5100114;28;20231;-34
2023/05/16 11:16:37;;;;;;;12.33;8.43;;;;;;;;;;5090621;28;20216;-34
2023/05/16 11:19:08;;;;;;;8.87;7.50;;;;;;;;;;5099665;28;20200;-29
2023/05/16 11:21:54;;;;;;;11.30;8.30;;;;;;;;;;5092251;28;20221;-33
2023/05/16 11:24:30;;;;;;;10.67;8.40;;;;;;;;;;5079357;28;20222;-32
2023/05/16 11:26:58;;;;;;;11.17;7.33;;;;;;;;;;5094359;28;20230;-33
2023/05/16 11:29:25;;;;;;;8.27;7.40;;;;;;;;;;5091820;28;20202;-31
2023/05/16 11:31:53;;;;;;;11.27;7.97;;;;;;;;;;5084414;28;20200;-33
2023/05/16 11:34:22;;;;;;;10.47;8.40;;;;;;;;;;5098341;27;20708;-33
2023/05/16 11:36:49;;;;;;;9.50;8.07;;;;;;;;;;5091980;28;20225;-34
2023/05/16 11:39:17;;;;;;;11.73;7.93;;;;;;;;;;5089511;28;20575;-33
2023/05/16 11:41:45;;;;;;;9.87;8.23;;;;;;;;;;5099915;28;20201;-32
2023/05/16 11:44:12;;;;;;;12.07;8.77;;;;;;;;;;5095701;28;20208;-31
2023/05/16 11:46:40;;;;;;;13.57;10.07;;;;;;;;;;5091158;28;20315;-32
2023/05/16 11:49:08;;;;;;;13.27;9.53;;;;;;;;;;5099839;28;20266;-33
2023/05/16 11:51:38;;;;;;;12.57;9.10;;;;;;;;;;5092037;28;20219;-33
2023/05/16 11:54:06;;;;;;;11.90;9.43;;;;;;;;;;5083350;28;20580;-33
2023/05/16 11:56:34;;;;;;;11.77;9.07;;;;;;;;;;5091537;28;20285;-33
2023/05/16 11:59:01;;;;;;;13.27;9.07;;;;;;;;;;5110998;28;20290;-32
2023/05/16 12:01:32;;;;;;;12.03;9.60;;;;;;;;;;5084875;28;20235;-34
2023/05/16 12:03:59;;;;;;;11.00;7.77;;;;;;;;;;5084383;28;20534;-32
2023/05/16 12:06:28;;;;;;;14.47;9.80;;;;;;;;;;5091095;28;20227;-32
2023/05/16 12:08:56;;;;;;;13.73;9.27;;;;;;;;;;5081324;28;20208;-35
2023/05/16 12:11:24;;;;;;;11.20;8.80;;;;;;;;;;5094096;28;20230;-33
2023/05/16 12:13:51;;;;;;;12.73;9.17;;;;;;;;;;5093047;28;20666;-31
2023/05/16 12:16:18;;;;;;;16.63;8.80;;;;;;;;;;5094227;28;20854;-31
2023/05/16 12:18:45;;;;;;;11.13;8.67;;;;;;;;;;5099882;28;20228;-32
2023/05/16 12:21:13;;;;;;;10.43;8.33;;;;;;;;;;5111025;28;20685;-34
2023/05/16 12:23:42;;;;;;;11.37;8.60;;;;;;;;;;5090473;28;20200;-31
2023/05/16 12:26:10;;;;;;;14.23;8.37;;;;;;;;;;5096518;28;20226;-33
2023/05/16 12:28:38;;;;;;;8.77;7.23;;;;;;;;;;5106687;28;20207;-30
2023/05/16 12:31:12;;;;;;;13.87;8.67;;;;;;;;;;5090627;28;20304;-33
2023/05/16 12:33:39;;;;;;;9.37;7.80;;;;;;;;;;5100867;28;20603;-34
2023/05/16 12:36:14;;;;;;;8.13;7.07;;;;;;;;;;5110668;28;20225;-34
2023/05/16 12:38:41;;;;;;;10.23;7.47;;;;;;;;;;5111371;28;20188;-31
2023/05/16 12:41:09;;;;;;;9.73;7.90;;;;;;;;;;5085446;28;20209;-32
2023/05/16 12:43:37;;;;;;;11.43;8.17;;;;;;;;;;5098646;28;20258;-34
2023/05/16 12:46:10;;;;;;;9.67;7.30;;;;;;;;;;5085765;28;20231;-32
2023/05/16 12:48:38;;;;;;;10.23;7.53;;;;;;;;;;5092770;28;20676;-31
2023/05/16 12:51:13;;;;;;;10.37;7.27;;;;;;;;;;5090274;28;20204;-31
2023/05/16 12:53:44;;;;;;;8.23;7.23;;;;;;;;;;5089993;28;20247;-31
2023/05/16 12:56:12;;;;;;;8.80;6.67;;;;;;;;;;5086543;28;20223;-33
2023/05/16 12:58:40;;;;;;;10.70;7.23;;;;;;;;;;5099951;28;20205;-30
2023/05/16 13:01:08;;;;;;;7.23;5.93;;;;;;;;;;5078782;28;20226;-31
2023/05/16 13:03:35;;;;;;;8.57;7.20;;;;;;;;;;5094623;28;20216;-34
2023/05/16 13:06:04;;;;;;;9.40;7.27;;;;;;;;;;5108746;28;20307;-34
2023/05/16 13:08:31;;;;;;;9.77;6.43;;;;;;;;;;5097975;28;20208;-31
2023/05/16 13:10:58;;;;;;;8.57;6.73;;;;;;;;;;5082807;28;20212;-33
2023/05/16 13:13:26;;;;;;;7.30;6.10;;;;;;;;;;5089864;28;20689;-32
2023/05/16 13:15:54;;;;;;;10.93;6.80;;;;;;;;;;5088473;28;20616;-31
2023/05/16 13:18:21;;;;;;;7.70;6.33;;;;;;;;;;5107962;28;20640;-33
2023/05/16 13:20:49;;;;;;;9.43;6.03;;;;;;;;;;5110948;28;20202;-31
2023/05/16 13:23:16;;;;;;;7.40;6.50;;;;;;;;;;5094425;28;20205;-34
2023/05/16 13:25:44;;;;;;;8.27;5.53;;;;;;;;;;5089028;28;20303;-35
2023/05/16 13:28:11;;;;;;;6.43;5.23;;;;;;;;;;5090143;28;20297;-34
2023/05/16 13:30:38;;;;;;;6.70;5.80;;;;;;;;;;5080424;28;20208;-30
2023/05/16 13:33:06;;;;;;;6.70;5.77;;;;;;;;;;5084949;28;20222;-32
2023/05/16 13:35:33;;;;;;;8.00;5.70;;;;;;;;;;5114443;28;20225;-33
2023/05/16 13:38:01;;;;;;;5.30;4.60;;;;;;;;;;5115421;28;20218;-34
2023/05/16 13:40:28;;;;;;;7.10;4.87;;;;;;;;;;5095497;28;20230;-29
2023/05/16 13:42:55;;;;;;;8.73;5.57;;;;;;;;;;5096383;28;20269;-31
2023/05/16 13:45:22;;;;;;;6.07;4.73;;;;;;;;;;5100144;28;20212;-32
2023/05/16 13:47:49;;;;;;;5.47;4.57;;;;;;;;;;5091794;28;20204;-34
2023/05/16 13:50:18;;;;;;;5.20;4.37;;;;;;;;;;5106743;28;20204;-32
2023/05/16 13:52:46;;;;;;;6.77;4.37;;;;;;;;;;5106794;28;20344;-31
2023/05/16 13:55:13;;;;;;;5.70;3.67;;;;;;;;;;5087671;28;20365;-31
2023/05/16 13:57:40;;;;;;;4.40;3.90;;;;;;;;;;5093552;28;20203;-31
2023/05/16 14:00:11;;;;;;;4.87;4.37;;;;;;;;;;5085355;28;20209;-33
2023/05/16 14:02:38;;;;;;;4.20;3.47;;;;;;;;;;5101894;28;20215;-35
2023/05/16 14:05:05;;;;;;;7.50;3.40;;;;;;;;;;5113636;28;20383;-33
2023/05/16 14:07:34;;;;;;;3.70;3.27;;;;;;;;;;5089543;27;20212;-31
2023/05/16 14:10:05;;;;;;;3.80;3.50;;;;;;;;;;5090377;28;20607;-34
2023/05/16 14:12:36;;;;;;;3.73;3.37;;;;;;;;;;5091240;28;20288;-32
2023/05/16 14:15:03;;;;;;;3.37;3.07;;;;;;;;;;5072826;28;20224;-35
2023/05/16 14:17:30;;;;;;;3.40;3.10;;;;;;;;;;5081985;28;20203;-34
2023/05/16 14:19:57;;;;;;;3.40;3.10;;;;;;;;;;5084553;28;20266;-31
2023/05/16 14:22:24;;;;;;;7.50;6.27;;;;;;;;;;5087000;27;20203;-30
2023/05/16 14:24:53;;;;;;;4.20;3.20;;;;;;;;;;5079317;28;20211;-33
2023/05/16 14:27:20;;;;;;;3.40;3.10;;;;;;;;;;5077210;28;20206;-31
2023/05/16 14:29:47;;;;;;;3.00;2.80;;;;;;;;;;5085486;28;20198;-34
2023/05/16 14:32:14;;;;;;;3.47;3.17;;;;;;;;;;5080016;28;20257;-33
2023/05/16 14:34:41;;;;;;;4.07;2.77;;;;;;;;;;5097565;28;20220;-35
2023/05/16 14:37:09;;;;;;;5.97;4.63;;;;;;;;;;5083862;28;20227;-34
2023/05/16 14:39:36;;;;;;;3.23;2.90;;;;;;;;;;5097929;28;20197;-31
2023/05/16 14:42:04;;;;;;;3.87;3.47;;;;;;;;;;5085527;28;20200;-35
2023/05/16 14:44:31;;;;;;;3.70;3.40;;;;;;;;;;5075834;28;20207;-34
2023/05/16 14:46:59;;;;;;;4.37;3.03;;;;;;;;;;5078293;28;20221;-33
2023/05/16 14:49:26;;;;;;;3.00;2.70;;;;;;;;;;5080541;28;20190;-33
2023/05/16 14:51:53;;;;;;;4.23;2.50;;;;;;;;;;5082580;28;20208;-34
2023/05/16 14:54:20;;;;;;;4.50;3.03;;;;;;;;;;5079455;28;20201;-29
2023/05/16 14:56:47;;;;;;;3.20;2.60;;;;;;;;;;5074142;28;20231;-30
2023/05/16 14:59:16;;;;;;;3.43;3.13;;;;;;;;;;5082015;28;20250;-30
2023/05/16 15:01:43;;;;;;;3.07;2.77;;;;;;;;;;5087790;28;20207;-33
2023/05/16 15:04:10;;;;;;;3.20;2.90;;;;;;;;;;5087631;28;20208;-36
2023/05/16 15:06:37;;;;;;;4.00;2.43;;;;;;;;;;5084775;28;20229;-33
2023/05/16 15:09:05;;;;;;;2.90;2.60;;;;;;;;;;5076330;28;20198;-32
2023/05/16 15:11:32;;;;;;;5.20;3.40;;;;;;;;;;5079689;28;20198;-33
2023/05/16 15:14:00;;;;;;;2.77;2.57;;;;;;;;;;5087695;28;20231;-34
2023/05/16 15:16:30;;;;;;;2.93;2.63;;;;;;;;;;5080702;28;20311;-35
2023/05/16 15:18:57;;;;;;;2.30;2.10;;;;;;;;;;5087188;28;20210;-35
2023/05/16 15:21:24;;;;;;;3.40;2.03;;;;;;;;;;5086235;28;20246;-32
2023/05/16 15:23:51;;;;;;;2.33;2.10;;;;;;;;;;5085113;28;20235;-34
2023/05/16 15:26:18;;;;;;;3.67;2.10;;;;;;;;;;5087904;28;20311;-33
2023/05/16 15:28:45;;;;;;;1.97;1.70;;;;;;;;;;5075988;28;20189;-33
2023/05/16 15:31:15;;;;;;;2.20;2.00;;;;;;;;;;5089001;27;20194;-32
2023/05/16 15:33:44;;;;;;;2.17;1.90;;;;;;;;;;5083058;28;20198;-32
2023/05/16 15:36:11;;;;;;;2.13;1.93;;;;;;;;;;5083415;28;20328;-30
2023/05/16 15:38:42;;;;;;;1.80;1.70;;;;;;;;;;5072808;28;20262;-33
2023/05/16 15:41:10;;;;;;;2.20;1.97;;;;;;;;;;5088603;28;20215;-35
2023/05/16 15:43:37;;;;;;;2.47;2.27;;;;;;;;;;5079406;28;20539;-33
2023/05/16 15:46:06;;;;;;;2.00;1.90;;;;;;;;;;5083737;28;20231;-34
2023/05/16 15:48:33;;;;;;;1.63;1.53;;;;;;;;;;5089313;28;20199;-30
2023/05/16 15:51:02;;;;;;;2.67;1.77;;;;;;;;;;5085894;28;20204;-32
2023/05/16 15:53:29;;;;;;;2.10;1.90;;;;;;;;;;5085342;28;20367;-35
2023/05/16 15:55:56;;;;;;;2.10;1.67;;;;;;;;;;5089274;28;20301;-35
2023/05/16 15:58:24;;;;;;;2.03;1.83;;;;;;;;;;5080773;28;20215;-32
2023/05/16 16:00:52;;;;;;;2.03;1.70;;;;;;;;;;5069347;28;20205;-31
2023/05/16 16:03:19;;;;;;;1.60;1.50;;;;;;;;;;5091124;28;20233;-30
2023/05/16 16:05:46;;;;;;;2.20;1.57;;;;;;;;;;5078283;28;20254;-32
2023/05/16 16:08:15;;;;;;;1.63;1.50;;;;;;;;;;5081898;28;20289;-33
2023/05/16 16:10:42;;;;;;;1.63;1.50;;;;;;;;;;5100522;28;20206;-36
2023/05/16 16:13:09;;;;;;;1.50;1.40;;;;;;;;;;5084711;28;20221;-33
2023/05/16 16:15:36;;;;;;;1.67;1.50;;;;;;;;;;5075836;28;20233;-32
2023/05/16 16:18:05;;;;;;;2.07;1.53;;;;;;;;;;5087736;28;20209;-35
2023/05/16 16:20:32;;;;;;;1.40;1.13;;;;;;;;;;5098002;28;20207;-34
2023/05/16 16:22:59;;;;;;;2.03;1.40;;;;;;;;;;5079833;28;20196;-35
2023/05/16 16:25:46;;;;;;;1.93;1.43;;;;;;;;;;5089689;28;20215;-33
2023/05/16 16:28:13;;;;;;;1.90;1.30;;;;;;;;;;5085007;28;20204;-35
2023/05/16 16:30:49;;;;;;;2.23;1.50;;;;;;;;;;5350213;22;20228;-29
2023/05/16 16:33:20;;;;;;;1.30;1.20;;;;;;;;;;5088823;28;20213;-26
2023/05/16 16:35:51;;;;;;;1.37;1.27;;;;;;;;;;5087889;28;20262;-31
2023/05/16 16:38:22;;;;;;;1.07;1.07;;;;;;;;;;5067309;28;20201;-25
2023/05/16 16:40:51;;;;;;;1.07;0.97;;;;;;;;;;5071546;28;20203;-29
2023/05/16 16:43:20;;;;;;;1.00;1.00;;;;;;;;;;5077109;28;20207;-29
2023/05/16 16:45:51;;;;;;;1.33;1.23;;;;;;;;;;5084577;28;20708;-29
2023/05/16 16:48:24;;;;;;;1.20;1.20;;;;;;;;;;5085954;28;20213;-26
2023/05/16 16:50:55;;;;;;;1.70;1.30;;;;;;;;;;5066666;28;20209;-29
2023/05/16 16:53:31;;;;;;;2.33;1.20;;;;;;;;;;5072686;28;20273;-30
2023/05/16 16:56:01;;;;;;;2.63;1.63;;;;;;;;;;5065569;28;20607;-30
2023/05/16 16:58:36;;;;;;;2.13;1.93;;;;;;;;;;5073918;28;20203;-27
2023/05/16 17:01:15;;;;;;;2.83;1.30;;;;;;;;;;5071750;28;20273;-30
2023/05/16 17:06:31;;;;;;;2.20;1.30;;;;;;;;;;5278481;22;20225;-29
2023/05/16 17:09:05;;;;;;;3.60;1.40;;;;;;;;;;5158463;27;20242;-27
2023/05/16 17:14:41;;;;;;;1.80;1.40;;;;;;;;;;5167649;22;20199;31
2023/05/16 17:17:30;;;;;;;2.47;1.30;;;;;;;;;;5017718;28;20241;-29
2023/05/16 17:20:06;;;;;;;2.43;1.30;;;;;;;;;;5025700;28;20211;-27
2023/05/16 17:22:43;;;;;;;2.57;1.30;;;;;;;;;;5029923;28;20235;-30
2023/05/16 17:28:36;;;;;;;1.80;1.10;;;;;;;;;;5028299;28;20241;-26
2023/05/16 17:31:14;;;;;;;2.93;1.50;;;;;;;;;;5022190;28;20206;-31
2023/05/16 17:37:29;;;;;;;6.93;2.17;;;;;;;;;;5031601;28;20303;-30
2023/05/16 17:43:05;;;;;;;3.73;1.50;;;;;;;;;;4983412;28;20254;-30
2023/05/16 17:46:02;;;;;;;4.70;1.53;;;;;;;;;;4977499;28;20220;-27
2023/05/16 17:51:39;;;;;;;2.27;1.20;;;;;;;;;;4976289;28;20260;-27
2023/05/16 17:57:16;;;;;;;3.07;1.53;;;;;;;;;;5005821;28;20271;-28
2023/05/16 17:59:48;;;;;;;2.03;1.50;;;;;;;;;;5020975;28;20271;-27
2023/05/16 18:02:48;;;;;;;2.20;1.23;;;;;;;;;;5016278;28;20214;-27
2023/05/16 18:05:31;;;;;;;3.07;1.47;;;;;;;;;;5014653;28;20235;-29
2023/05/16 18:10:58;;;;;;;2.30;1.40;;;;;;;;;;5016745;28;20244;-26
2023/05/16 18:19:03;;;;;;;1.63;1.23;;;;;;;;;;5017968;28;20222;-28
2023/05/16 18:36:38;;;;;;;2.97;1.20;;;;;;;;;;4999880;28;20269;-27
2023/05/16 18:39:47;;;;;;;1.97;1.37;;;;;;;;;;5015637;28;20200;-32
2023/05/16 18:42:42;;;;;;;1.30;1.13;;;;;;;;;;4978072;28;20213;-31
2023/05/16 18:45:37;;;;;;;;;;;;;;;;;;;;;
2023/05/16 18:51:28;;;;;;;2.40;1.10;;;;;;;;;;4924959;29;20202;-30
2023/05/16 18:54:07;;;;;;;3.13;1.20;;;;;;;;;;4921389;29;20659;-27
2023/05/16 18:57:20;;;;;;;2.20;1.10;;;;;;;;;;4911874;29;20237;-30
2023/05/16 18:59:55;;;;;;;2.07;1.57;;;;;;;;;;4910844;29;20210;-28
2023/05/16 19:17:28;;;;;;;2.33;1.50;;;;;;;;;;5031591;28;20226;-27
2023/05/16 19:20:23;;;;;;;1.87;1.20;;;;;;;;;;5015993;28;20218;-28
2023/05/16 19:32:06;;;;;;;2.43;1.27;;;;;;;;;;4992529;28;20201;-28
2023/05/16 19:34:38;;;;;;;4.07;1.80;;;;;;;;;;5324698;22;20243;-27
2023/05/16 19:37:20;;;;;;;3.17;1.20;;;;;;;;;;5115288;28;20217;-26
2023/05/16 19:43:11;;;;;;;3.53;1.43;;;;;;;;;;5111842;28;20304;-28
2023/05/16 19:45:50;;;;;;;2.50;1.80;;;;;;;;;;5111589;28;20219;-29
2023/05/16 19:48:29;;;;;;;3.87;1.53;;;;;;;;;;5114410;28;20249;-28
2023/05/16 19:51:05;;;;;;;4.03;1.50;;;;;;;;;;5114957;28;20201;-27
2023/05/16 19:59:28;;;;;;;3.03;1.57;;;;;;;;;;5186197;22;20252;-32
2023/05/16 20:02:03;;;;;;;3.83;1.73;;;;;;;;;;5090596;28;20210;-28
2023/05/16 20:04:39;;;;;;;4.17;1.77;;;;;;;;;;5094032;28;20205;-29
2023/05/16 20:07:10;;;;;;;4.27;1.83;;;;;;;;;;5075547;28;20225;-28
2023/05/16 20:09:51;;;;;;;4.77;2.20;;;;;;;;;;5068039;28;20201;-31
2023/05/16 20:12:32;;;;;;;2.57;1.40;;;;;;;;;;5073752;28;20420;-31
2023/05/16 20:18:06;;;;;;;6.20;1.73;;;;;;;;;;5114384;22;20274;-31
2023/05/16 20:20:52;;;;;;;2.43;1.70;;;;;;;;;;5109453;28;20212;-28
2023/05/16 20:29:16;;;;;;;5.20;1.87;;;;;;;;;;5085983;28;20204;-29
2023/05/16 20:31:48;;;;;;;3.17;1.40;;;;;;;;;;5088640;28;20285;-27
2023/05/16 20:37:31;;;;;;;3.97;1.83;;;;;;;;;;5050921;28;20340;-34
2023/05/16 20:56:49;;;;;;;4.07;1.80;;;;;;;;;;5067093;28;20233;-31
2023/05/16 21:02:46;;;;;;;1.63;1.53;;;;;;;;;;5065901;28;20197;-38
2023/05/16 21:09:00;;;;;;;4.70;1.60;;;;;;;;;;5023939;28;20198;-37
2023/05/16 21:11:51;;;;;;;3.33;1.67;;;;;;;;;;5021995;28;20258;-29
2023/05/16 21:23:32;;;;;;;2.40;1.60;;;;;;;;;;5224780;22;20327;-29
2023/05/16 21:26:25;;;;;;;4.73;1.73;;;;;;;;;;5057961;28;20226;-30
2023/05/16 21:32:31;;;;;;;1.83;1.63;;;;;;;;;;4946730;28;20278;-26
2023/05/16 21:35:29;;;;;;;3.90;2.50;;;;;;;;;;4990020;28;20278;-28
2023/05/16 21:41:32;;;;;;;;;;;;;;;;;;;;;
2023/05/16 21:54:08;;;;;;;3.07;1.80;;;;;;;;;;5240652;22;20255;-29
2023/05/16 22:03:39;;;;;;;1.37;1.23;;;;;;;;;;4966174;28;20212;-29
2023/05/16 22:21:50;;;;;;;2.53;1.43;;;;;;;;;;5053634;28;20217;-37